Aeroporto :
LOGIN :

Iscrizione | Disclaimer

   EN    FR    IT 

 










Sommario :    VFR   VFR Marginale   IFR   IFR Intensivo   IFR Molto Intensivo
Visibilità : 
Base nubi : 
>= 8 km
>= 3000ft
5 / 8 km
1000 / 3000 ft
1500m / 5 km
500 / 1000 ft
800 / 1500m
200 / 500 ft
< 800m
< 200 ft
Simboli :   Temporali  Nebbia  Neve Forte  Precipitazioni Forti  Vento > 20 kt
SIGMETs :   Varie  Temporali  Ghiacco  Turbolenza  Onda orograficha  Ceneri Vulcaniche






- Altitudine del aeroporto : 256 ft
- Codice IATA : CFR


LFRK - Caen

ULTIMO METAR :
  • 122330Z AUTO 26013KT 9999 -RA FEW028/// BKN033/// OVC040/// ///TCU 07/06 Q1003

METARs OBSOLETI :
  • 122300Z AUTO 26010KT 9999 BKN024/// BKN038/// BKN046/// ///TCU 07/06 Q1003
  • 122230Z AUTO 27012KT 9999 -RA VCTS FEW028/// BKN044/// BKN052/// ///CB 07/05 Q1003
  • 122200Z AUTO 27011KT 9999 -RA SCT037/// BKN044/// OVC052/// ///CB 07/05 Q1003
  • 122130Z AUTO 26013KT 9999 SCT037/// SCT043/// BKN054/// ///TCU 07/04 Q1003
  • 122100Z AUTO 25011KT 9999 ///CB 06/03 Q1003 TEMPO 4000 SHRA

Previsioni scadute.
Met : +33 2 31 26 68 11



MetMap, La meteo Aeronautica in un colpo d'occhio ! - Copyright ORBIFLY Dicembre 2007 - Disclaimer

ORBIFLY MET'MAP TEAM :

Programmazione e sviluppo : Alexandra Zaïnal
Concezione e sviluppo : Baudouin d'Aumeries
Co-Programmazione e sviluppo : Marc-Olivier Méhu
Supporto tecnico e logistico : Manuel Goepfert
Aiuto per la traduzione : Arnaldo La Scala

Contatto : metmap@orbifly.com




FONTI E CREDITI :

   NOAA